Scranton, Kansas
Current Conditions -  °F | °C
As of 9:53 AM on Wednesday 26 Nov 2014 (Local Time) from KFOE Reporting Station
Broken Clouds Broken Clouds  
Wind Chill: 35°   Ceiling: 4700
Heat Index: 44°   Visibility: 10mi
Dew Point: 29°   Wind: 24mph
Humidity: 55%   Direction: 310°NW
Pressure: 30.02"   Gusts: 36mph
Location:  38.78°N, 95.74°W
Report Text: KFOE 261553Z 31021G31KT 10SM SCT040 BKN047 07/M02 A3002 RMK AO2 PK WND 32031/1550 SLP170 T00671017
Loading
Personal Weather Stations






























Interactive Weather Map New forecast layout! Learn more

10-Day Weather Forecast

Advertisements
Track Severe Weather on mobile